createdAt,value
2018-04-20T00:00:16.584Z,11.60
2018-04-20T00:02:44.843Z,9.87
2018-04-20T00:05:12.373Z,10.47
2018-04-20T00:07:39.871Z,10.70
2018-04-20T00:10:07.362Z,10.47
2018-04-20T00:12:34.891Z,13.73
2018-04-20T00:15:02.386Z,9.10
2018-04-20T00:17:29.905Z,11.60
2018-04-20T00:19:57.414Z,12.63
2018-04-20T00:22:24.954Z,11.50
2018-04-20T00:24:52.453Z,13.20
2018-04-20T00:27:19.943Z,10.83
2018-04-20T00:29:47.460Z,8.87
2018-04-20T00:32:14.953Z,12.47
2018-04-20T00:34:42.480Z,15.43
2018-04-20T00:37:09.990Z,12.67
2018-04-20T00:39:38.274Z,10.90
2018-04-20T00:42:06.541Z,12.20
2018-04-20T00:44:34.804Z,10.83
2018-04-20T00:47:02.321Z,12.70
2018-04-20T00:49:29.824Z,10.53
2018-04-20T00:51:57.351Z,9.70
2018-04-20T00:54:24.851Z,13.23
2018-04-20T00:56:53.143Z,12.33
2018-04-20T00:59:20.641Z,11.17
2018-04-20T01:01:48.154Z,12.40
2018-04-20T01:04:15.669Z,18.17
2018-04-20T01:06:43.170Z,12.30
2018-04-20T01:09:11.459Z,12.13
2018-04-20T01:11:39.714Z,10.90
2018-04-20T01:14:07.219Z,12.60
2018-04-20T01:16:34.745Z,10.17
2018-04-20T01:19:03.005Z,13.50
2018-04-20T01:21:30.520Z,9.80
2018-04-20T01:23:58.022Z,13.57
2018-04-20T01:26:25.524Z,8.67
2018-04-20T01:28:53.053Z,9.00
2018-04-20T01:31:20.549Z,11.97
2018-04-20T01:33:48.083Z,11.57
2018-04-20T01:36:16.363Z,10.43
2018-04-20T01:38:44.622Z,7.93
2018-04-20T01:41:12.133Z,11.63
2018-04-20T01:43:39.642Z,10.57
2018-04-20T01:46:07.154Z,8.70
2018-04-20T01:48:34.653Z,9.87
2018-04-20T01:51:02.150Z,11.20
2018-04-20T01:53:29.669Z,8.20
2018-04-20T01:55:57.174Z,8.23
2018-04-20T01:58:24.674Z,12.13
2018-04-20T02:00:52.272Z,12.00
2018-04-20T02:03:19.711Z,11.10
2018-04-20T02:05:47.447Z,10.47
2018-04-20T02:08:14.966Z,7.03
2018-04-20T02:10:42.461Z,9.50
2018-04-20T02:13:10.011Z,10.43
2018-04-20T02:15:37.519Z,10.93
2018-04-20T02:18:05.009Z,11.50
2018-04-20T02:20:32.523Z,9.30
2018-04-20T02:23:00.040Z,8.80
2018-04-20T02:25:27.542Z,6.57
2018-04-20T02:27:55.037Z,15.50
2018-04-20T02:30:23.327Z,12.03
2018-04-20T02:32:50.834Z,12.07
2018-04-20T02:35:19.097Z,13.10
2018-04-20T02:37:46.610Z,14.70
2018-04-20T02:40:14.874Z,9.90
2018-04-20T02:42:42.368Z,9.80
2018-04-20T02:45:09.901Z,12.00
2018-04-20T02:47:38.165Z,9.47
2018-04-20T02:50:05.677Z,11.07
2018-04-20T02:52:33.194Z,8.80
2018-04-20T02:55:01.458Z,8.80
2018-04-20T02:57:29.003Z,9.80
2018-04-20T02:59:56.517Z,18.03
2018-04-20T03:02:24.018Z,11.67
2018-04-20T03:04:51.516Z,8.30
2018-04-20T03:07:19.041Z,10.40
2018-04-20T03:09:46.551Z,14.50
2018-04-20T03:12:14.066Z,8.63
2018-04-20T03:14:42.404Z,10.00
2018-04-20T03:17:09.898Z,9.57
2018-04-20T03:19:37.418Z,10.70
2018-04-20T03:22:04.944Z,7.43
2018-04-20T03:24:33.217Z,10.33
2018-04-20T03:27:01.482Z,10.20
2018-04-20T03:29:28.990Z,9.40
2018-04-20T03:31:56.495Z,10.70
2018-04-20T03:34:24.002Z,6.67
2018-04-20T03:36:51.522Z,9.97
2018-04-20T03:39:19.810Z,10.47
2018-04-20T03:41:47.310Z,6.13
2018-04-20T03:44:14.835Z,8.23
2018-04-20T03:46:43.100Z,8.83
2018-04-20T03:49:10.601Z,7.80
2018-04-20T03:51:38.119Z,8.13
2018-04-20T03:54:05.618Z,11.53
2018-04-20T03:56:33.154Z,8.17
2018-04-20T03:59:00.688Z,9.20
2018-04-20T04:01:28.191Z,7.90
2018-04-20T04:03:55.913Z,11.23
2018-04-20T04:06:23.439Z,18.27
2018-04-20T04:08:50.926Z,8.60
2018-04-20T04:11:18.429Z,9.27
2018-04-20T04:13:45.947Z,6.97
2018-04-20T04:16:25.218Z,7.73
2018-04-20T04:19:05.334Z,10.23
2018-04-20T04:21:44.638Z,9.70
2018-04-20T04:24:24.038Z,8.63
2018-04-20T04:27:17.985Z,7.27
2018-04-20T04:29:45.517Z,12.20
2018-04-20T04:32:13.014Z,9.67
2018-04-20T04:34:40.751Z,13.90
2018-04-20T04:37:08.246Z,8.03
2018-04-20T04:39:35.746Z,16.60
2018-04-20T04:42:03.502Z,14.00
2018-04-20T04:44:31.011Z,11.00
2018-04-20T04:46:58.538Z,7.80
2018-04-20T04:49:26.034Z,9.17
2018-04-20T04:51:53.530Z,8.87
2018-04-20T04:54:21.051Z,9.53
2018-04-20T04:56:48.547Z,8.30
2018-04-20T04:59:16.069Z,8.50
2018-04-20T05:01:43.566Z,8.53
2018-04-20T05:04:11.111Z,11.47
2018-04-20T05:06:39.406Z,8.33
2018-04-20T05:09:06.909Z,8.73
2018-04-20T05:11:34.439Z,7.57
2018-04-20T05:14:01.948Z,10.07
2018-04-20T05:16:29.441Z,11.53
2018-04-20T05:18:58.743Z,10.40
2018-04-20T05:21:26.260Z,10.33
2018-04-20T05:23:54.175Z,9.47
2018-04-20T05:26:21.704Z,9.20
2018-04-20T05:28:49.212Z,7.77
2018-04-20T05:31:16.734Z,9.53
2018-04-20T05:33:44.234Z,15.27
2018-04-20T05:36:11.747Z,14.57
2018-04-20T05:38:39.256Z,13.17
2018-04-20T05:41:06.754Z,15.50
2018-04-20T05:43:34.274Z,15.17
2018-04-20T05:46:01.779Z,10.67
2018-04-20T05:48:29.351Z,11.57
2018-04-20T05:50:56.841Z,14.93
2018-04-20T05:53:24.338Z,11.60
2018-04-20T05:55:52.228Z,13.17
2018-04-20T06:00:53.567Z,14.53
2018-04-20T06:03:21.097Z,13.47
2018-04-20T06:05:48.635Z,11.30
2018-04-20T06:08:16.928Z,10.50
2018-04-20T06:10:44.436Z,10.50
2018-04-20T06:13:11.971Z,11.47
2018-04-20T06:15:39.471Z,11.20
2018-04-20T06:18:06.982Z,15.20
2018-04-20T06:20:34.491Z,11.63
2018-04-20T06:23:02.031Z,15.53
2018-04-20T06:25:29.539Z,13.23
2018-04-20T06:27:57.816Z,11.07
2018-04-20T06:30:26.366Z,12.87
2018-04-20T06:32:54.695Z,10.50
2018-04-20T06:35:22.202Z,10.43
2018-04-20T06:37:49.709Z,10.90
2018-04-20T06:40:17.218Z,11.70
2018-04-20T06:42:44.736Z,11.77
2018-04-20T06:45:12.236Z,11.83
2018-04-20T06:47:39.758Z,16.30
2018-04-20T06:50:07.257Z,16.70
2018-04-20T06:52:34.776Z,15.43
2018-04-20T06:55:02.304Z,16.10
2018-04-20T06:57:29.818Z,11.40
2018-04-20T06:59:57.337Z,14.67
2018-04-20T07:02:24.838Z,17.03
2018-04-20T07:04:52.339Z,13.37
2018-04-20T07:07:20.641Z,15.20
2018-04-20T07:09:48.142Z,12.13
2018-04-20T07:12:15.697Z,14.17
2018-04-20T07:14:43.193Z,16.60
2018-04-20T07:17:11.933Z,15.00
2018-04-20T07:19:39.443Z,14.03
2018-04-20T07:22:07.727Z,17.13
2018-04-20T07:24:36.019Z,21.70
2018-04-20T07:27:03.530Z,13.73
2018-04-20T07:29:31.055Z,18.73
2018-04-20T07:31:58.560Z,10.27
2018-04-20T07:34:26.084Z,13.33
2018-04-20T07:36:54.447Z,12.93
2018-04-20T07:39:23.100Z,12.57
2018-04-20T07:41:51.398Z,13.73
2018-04-20T07:44:18.903Z,12.83
2018-04-20T07:46:46.421Z,14.40
2018-04-20T07:49:13.952Z,14.50
2018-04-20T07:51:42.936Z,12.23
2018-04-20T07:54:10.450Z,13.50
2018-04-20T07:56:37.963Z,18.43
2018-04-20T07:59:05.524Z,12.93
2018-04-20T08:01:33.802Z,10.30
2018-04-20T08:04:01.331Z,12.83
2018-04-20T08:06:28.886Z,10.33
2018-04-20T08:08:56.389Z,7.63
2018-04-20T08:11:24.691Z,10.80
2018-04-20T08:13:52.246Z,16.53
2018-04-20T08:16:19.725Z,10.40
2018-04-20T08:18:47.242Z,9.03
2018-04-20T08:21:15.564Z,9.40
2018-04-20T08:23:43.095Z,11.27
2018-04-20T08:26:10.635Z,12.07
2018-04-20T08:28:38.934Z,10.97
2018-04-20T08:31:06.584Z,7.07
2018-04-20T08:33:34.976Z,11.03
2018-04-20T08:36:02.515Z,9.60
2018-04-20T08:38:30.812Z,10.53
2018-04-20T08:40:58.325Z,8.70
2018-04-20T08:43:25.859Z,8.10
2018-04-20T08:45:53.350Z,9.50
2018-04-20T08:48:20.906Z,10.30
2018-04-20T08:50:48.417Z,10.63
2018-04-20T08:53:15.978Z,8.87
2018-04-20T08:55:43.480Z,15.10
2018-04-20T08:58:10.986Z,7.53
2018-04-20T09:00:38.542Z,11.63
2018-04-20T09:03:06.052Z,11.53
2018-04-20T09:05:33.610Z,10.07
2018-04-20T09:08:01.162Z,7.27
2018-04-20T09:10:28.680Z,11.40
2018-04-20T09:12:56.970Z,10.63
2018-04-20T09:15:24.581Z,15.63
2018-04-20T09:17:52.910Z,9.80
2018-04-20T09:20:21.173Z,8.03
2018-04-20T09:22:49.464Z,9.90
2018-04-20T09:25:17.741Z,10.77
2018-04-20T09:27:45.234Z,11.50
2018-04-20T09:30:12.759Z,9.93
2018-04-20T09:32:40.263Z,11.43
2018-04-20T09:35:07.789Z,10.30
2018-04-20T09:37:35.290Z,12.50
2018-04-20T09:40:02.786Z,10.10
2018-04-20T09:42:31.073Z,8.03
2018-04-20T09:44:58.574Z,9.17
2018-04-20T09:47:26.108Z,12.83
2018-04-20T09:49:53.624Z,9.70
2018-04-20T09:52:21.140Z,8.60
2018-04-20T09:54:48.680Z,9.40
2018-04-20T09:57:16.192Z,11.20
2018-04-20T09:59:43.723Z,8.13
2018-04-20T10:02:11.228Z,12.80
2018-04-20T10:04:41.724Z,9.70
2018-04-20T10:07:09.250Z,9.17
2018-04-20T10:09:36.754Z,7.93
2018-04-20T10:12:04.279Z,13.97
2018-04-20T10:14:31.811Z,8.50
2018-04-20T10:17:00.094Z,13.50
2018-04-20T10:19:28.366Z,11.57
2018-04-20T10:21:56.667Z,10.53
2018-04-20T10:24:24.195Z,8.80
2018-04-20T10:26:51.745Z,7.83
2018-04-20T10:29:19.248Z,12.10
2018-04-20T10:31:46.745Z,11.03
2018-04-20T10:34:14.287Z,9.97
2018-04-20T10:36:41.768Z,10.60
2018-04-20T10:39:09.429Z,10.87
2018-04-20T10:41:37.038Z,9.93
2018-04-20T10:44:04.589Z,6.90
2018-04-20T10:46:32.139Z,11.40
2018-04-20T10:49:00.428Z,10.57
2018-04-20T10:51:28.756Z,9.97
2018-04-20T10:53:56.262Z,10.50
2018-04-20T10:56:24.558Z,9.17
2018-04-20T10:58:52.140Z,11.53
2018-04-20T11:01:19.651Z,10.43
2018-04-20T11:03:47.939Z,13.87
2018-04-20T11:06:16.270Z,15.70
2018-04-20T11:08:44.779Z,11.10
2018-04-20T11:11:12.283Z,10.63
2018-04-20T11:13:39.807Z,11.33
2018-04-20T11:16:08.074Z,13.70
2018-04-20T11:18:36.575Z,11.47
2018-04-20T11:21:04.859Z,10.37
2018-04-20T11:23:32.372Z,10.70
2018-04-20T11:25:59.869Z,12.03
2018-04-20T11:28:28.155Z,14.93
2018-04-20T11:30:56.427Z,13.37
2018-04-20T11:33:24.698Z,11.13
2018-04-20T11:35:52.247Z,10.63
2018-04-20T11:38:19.774Z,10.50
2018-04-20T11:40:47.698Z,12.60
2018-04-20T11:43:15.494Z,9.93
2018-04-20T11:45:43.039Z,13.50
2018-04-20T11:48:10.641Z,11.90
2018-04-20T11:50:38.224Z,8.73
2018-04-20T11:53:05.740Z,15.83
2018-04-20T11:55:33.249Z,10.77
2018-04-20T11:58:00.780Z,16.73
2018-04-20T12:00:28.279Z,13.70
2018-04-20T12:02:55.809Z,11.27
2018-04-20T12:05:23.364Z,12.43
2018-04-20T12:07:50.870Z,13.50
2018-04-20T12:10:19.140Z,9.43
2018-04-20T12:12:47.432Z,10.33
2018-04-20T12:15:14.944Z,12.60
2018-04-20T12:17:42.453Z,13.30
2018-04-20T12:20:09.998Z,10.23
2018-04-20T12:22:38.295Z,11.10
2018-04-20T12:25:05.826Z,11.50
2018-04-20T12:27:34.119Z,14.83
2018-04-20T12:30:01.654Z,9.80
2018-04-20T12:32:29.170Z,13.50
2018-04-20T12:34:56.693Z,11.40
2018-04-20T12:37:24.999Z,15.77
2018-04-20T12:39:52.506Z,14.07
2018-04-20T12:42:20.019Z,12.50
2018-04-20T12:44:47.512Z,10.80
2018-04-20T12:47:15.008Z,12.27
2018-04-20T12:49:43.299Z,10.70
2018-04-20T12:52:10.801Z,11.20
2018-04-20T12:54:38.293Z,10.47
2018-04-20T12:57:06.580Z,12.03
2018-04-20T12:59:34.839Z,16.40
2018-04-20T13:02:02.342Z,13.13
2018-04-20T13:04:29.849Z,14.30
2018-04-20T13:06:57.342Z,14.70
2018-04-20T13:09:25.630Z,12.13
2018-04-20T13:11:53.908Z,16.37
2018-04-20T13:14:21.400Z,13.50
2018-04-20T13:16:49.118Z,12.37
2018-04-20T13:19:17.413Z,13.27
2018-04-20T13:21:44.930Z,17.60
2018-04-20T13:24:12.423Z,11.63
2018-04-20T13:26:39.939Z,10.23
2018-04-20T13:29:07.435Z,14.37
2018-04-20T13:31:35.699Z,16.40
2018-04-20T13:34:03.988Z,20.37
2018-04-20T13:36:31.487Z,18.40
2018-04-20T13:38:58.989Z,17.47
2018-04-20T13:41:26.512Z,17.50
2018-04-20T13:43:54.012Z,21.63
2018-04-20T13:46:22.301Z,17.60
2018-04-20T13:48:50.654Z,19.73
2018-04-20T13:51:18.099Z,17.67
2018-04-20T13:53:45.606Z,22.30
2018-04-20T13:56:13.131Z,15.47
2018-04-20T13:58:40.638Z,17.03
2018-04-20T14:01:08.148Z,15.47
2018-04-20T14:03:35.666Z,21.90
2018-04-20T14:06:03.158Z,23.53
2018-04-20T14:08:30.663Z,16.23
2018-04-20T14:10:58.202Z,16.23
2018-04-20T14:13:26.470Z,17.63
2018-04-20T14:15:53.962Z,19.03
2018-04-20T14:18:21.483Z,18.50
2018-04-20T14:20:48.986Z,15.70
2018-04-20T14:23:16.487Z,16.77
2018-04-20T14:25:44.014Z,21.40
2018-04-20T14:28:11.510Z,14.50
2018-04-20T14:30:39.019Z,18.27
2018-04-20T14:33:06.554Z,19.77
2018-04-20T14:35:34.839Z,15.70
2018-04-20T14:38:03.106Z,17.97
2018-04-20T14:40:30.639Z,19.13
2018-04-20T14:42:58.135Z,18.60
2018-04-20T14:45:26.399Z,20.17
2018-04-20T14:47:53.928Z,18.10
2018-04-20T14:50:21.431Z,21.13
2018-04-20T14:52:49.703Z,18.53
2018-04-20T14:55:18.008Z,17.50
2018-04-20T14:57:45.523Z,20.90
2018-04-20T15:00:13.019Z,20.73
2018-04-20T15:02:40.562Z,18.83
2018-04-20T15:05:09.949Z,14.30
2018-04-20T15:07:37.456Z,22.23
2018-04-20T15:10:04.984Z,21.70
2018-04-20T15:12:33.549Z,18.67
2018-04-20T15:15:01.069Z,20.53
2018-04-20T15:17:28.595Z,20.30
2018-04-20T15:19:56.863Z,17.63
2018-04-20T15:22:25.134Z,25.03
2018-04-20T15:24:52.683Z,18.27
2018-04-20T15:27:20.186Z,19.90
2018-04-20T15:29:47.703Z,18.47
2018-04-20T15:32:15.233Z,17.60
2018-04-20T15:34:42.735Z,18.83
2018-04-20T15:37:10.238Z,20.27
2018-04-20T15:39:37.775Z,22.60
2018-04-20T15:42:05.299Z,26.27
2018-04-20T15:44:32.834Z,16.63
2018-04-20T15:47:00.367Z,19.63
2018-04-20T15:49:27.871Z,18.87
2018-04-20T15:51:55.381Z,23.30
2018-04-20T15:54:22.963Z,13.53
2018-04-20T15:56:51.300Z,15.67
2018-04-20T15:59:19.579Z,20.13
2018-04-20T16:01:47.885Z,16.97
2018-04-20T16:04:15.519Z,15.73
2018-04-20T16:06:43.033Z,18.20
2018-04-20T16:09:10.795Z,23.50
2018-04-20T16:11:38.299Z,15.73
2018-04-20T16:14:06.566Z,18.23
2018-04-20T16:16:35.169Z,17.67
2018-04-20T16:19:02.821Z,15.90
2018-04-20T16:21:31.084Z,30.43
2018-04-20T16:23:58.610Z,18.83
2018-04-20T16:26:26.114Z,17.17
2018-04-20T16:28:54.407Z,14.00
2018-04-20T16:31:22.723Z,18.23
2018-04-20T16:33:50.238Z,16.33
2018-04-20T16:36:18.512Z,22.90
2018-04-20T16:38:46.811Z,18.53
2018-04-20T16:41:14.319Z,18.20
2018-04-20T16:43:41.822Z,16.00
2018-04-20T16:46:09.359Z,15.83
2018-04-20T16:48:36.879Z,15.60
2018-04-20T16:51:04.389Z,14.87
2018-04-20T16:53:32.688Z,14.33
2018-04-20T16:56:00.196Z,17.20
2018-04-20T16:58:27.700Z,13.03
2018-04-20T17:00:55.234Z,14.00
2018-04-20T17:03:23.520Z,18.83
2018-04-20T17:05:51.949Z,20.60
2018-04-20T17:08:19.481Z,13.63
2018-04-20T17:10:47.006Z,11.47
2018-04-20T17:13:14.520Z,18.60
2018-04-20T17:15:42.114Z,11.47
2018-04-20T17:18:09.680Z,12.93
2018-04-20T17:20:37.198Z,11.43
2018-04-20T17:23:04.833Z,11.20
2018-04-20T17:25:33.110Z,9.27
2018-04-20T17:28:00.635Z,10.63
2018-04-20T17:30:28.229Z,8.83
2018-04-20T17:32:56.556Z,7.43
2018-04-20T17:35:24.099Z,13.63
2018-04-20T17:37:51.645Z,14.53
2018-04-20T17:40:19.164Z,12.13
2018-04-20T17:42:46.677Z,10.10
2018-04-20T17:45:14.236Z,7.93
2018-04-20T17:47:41.806Z,7.00
2018-04-20T17:50:09.328Z,12.07
2018-04-20T17:52:37.619Z,8.90
2018-04-20T17:55:05.122Z,13.53
2018-04-20T17:57:32.653Z,11.00
2018-04-20T18:00:00.180Z,12.73
2018-04-20T18:02:28.518Z,10.33
2018-04-20T18:04:56.020Z,12.00
2018-04-20T18:07:24.323Z,8.57
2018-04-20T18:09:51.836Z,11.87
2018-04-20T18:12:19.360Z,12.70
2018-04-20T18:14:46.890Z,8.20
2018-04-20T18:17:14.407Z,7.20
2018-04-20T18:19:41.917Z,8.23
2018-04-20T18:22:09.451Z,12.00
2018-04-20T18:24:37.743Z,8.83
2018-04-20T18:27:06.015Z,8.73
2018-04-20T18:29:34.307Z,8.90
2018-04-20T18:32:02.414Z,8.40
2018-04-20T18:34:29.918Z,8.10
2018-04-20T18:36:58.207Z,8.03
2018-04-20T18:39:26.474Z,8.97
2018-04-20T18:41:54.779Z,9.97
2018-04-20T18:44:22.324Z,11.17
2018-04-20T18:46:49.845Z,13.03
2018-04-20T18:49:17.359Z,9.83
2018-04-20T18:51:44.918Z,7.30
2018-04-20T18:54:12.447Z,9.93
2018-04-20T18:56:40.769Z,13.87
2018-04-20T18:59:08.316Z,9.90
2018-04-20T19:01:35.876Z,8.63
2018-04-20T19:04:03.421Z,9.20
2018-04-20T19:06:30.975Z,8.40
2018-04-20T19:08:58.497Z,15.17
2018-04-20T19:11:26.029Z,9.17
2018-04-20T19:13:53.560Z,14.90
2018-04-20T19:16:21.063Z,7.90
2018-04-20T19:18:48.580Z,10.93
2018-04-20T19:21:16.173Z,11.47
2018-04-20T19:23:43.667Z,8.03
2018-04-20T19:26:11.234Z,13.10
2018-04-20T19:28:38.717Z,11.87
2018-04-20T19:31:07.079Z,11.43
2018-04-20T19:33:35.364Z,11.90
2018-04-20T19:36:02.891Z,7.63
2018-04-20T19:38:30.410Z,13.23
2018-04-20T19:40:57.937Z,10.10
2018-04-20T19:43:25.493Z,12.33
2018-04-20T19:45:52.996Z,8.70
2018-04-20T19:48:20.502Z,11.33
2018-04-20T19:50:48.824Z,10.60
2018-04-20T19:53:16.334Z,9.57
2018-04-20T19:55:43.851Z,15.90
2018-04-20T19:58:11.378Z,9.80
2018-04-20T20:00:39.667Z,10.33
2018-04-20T20:03:07.167Z,9.23
2018-04-20T20:05:34.728Z,11.00
2018-04-20T20:08:02.252Z,14.27
2018-04-20T20:10:29.776Z,15.10
2018-04-20T20:12:57.307Z,13.47
2018-04-20T20:15:24.844Z,12.20
2018-04-20T20:17:52.363Z,15.00
2018-04-20T20:20:19.895Z,11.37
2018-04-20T20:22:47.420Z,11.33
2018-04-20T20:25:14.933Z,13.80
2018-04-20T20:27:42.474Z,13.03
2018-04-20T20:30:09.990Z,9.50
2018-04-20T20:32:37.494Z,14.47
2018-04-20T20:35:05.048Z,13.40
2018-04-20T20:37:32.668Z,9.40
2018-04-20T20:40:00.207Z,10.60
2018-04-20T20:42:28.501Z,8.77
2018-04-20T20:44:56.024Z,10.70
2018-04-20T20:47:23.564Z,11.03
2018-04-20T20:49:51.158Z,11.47
2018-04-20T20:52:18.655Z,7.93
2018-04-20T20:54:46.187Z,8.37
2018-04-20T20:57:14.469Z,9.83
2018-04-20T20:59:42.827Z,12.40
2018-04-20T21:02:10.430Z,11.43
2018-04-20T21:04:37.990Z,11.43
2018-04-20T21:07:05.563Z,12.07
2018-04-20T21:09:33.095Z,9.80
2018-04-20T21:12:01.367Z,10.53
2018-04-20T21:14:29.654Z,10.43
2018-04-20T21:16:57.296Z,10.67
2018-04-20T21:19:24.820Z,9.33
2018-04-20T21:21:52.340Z,9.33
2018-04-20T21:24:19.861Z,12.93
2018-04-20T21:26:47.430Z,11.90
2018-04-20T21:29:14.957Z,8.40
2018-04-20T21:31:42.492Z,10.07
2018-04-20T21:34:10.127Z,11.83
2018-04-20T21:36:38.404Z,8.40
2018-04-20T21:39:06.709Z,14.03
2018-04-20T21:41:34.225Z,10.60
2018-04-20T21:44:01.740Z,7.97
2018-04-20T21:46:29.267Z,11.40
2018-04-20T21:48:57.543Z,8.97
2018-04-20T21:51:25.830Z,9.73
2018-04-20T21:53:53.335Z,8.87
2018-04-20T21:56:20.846Z,9.30
2018-04-20T21:58:48.388Z,11.93
2018-04-20T22:01:16.664Z,10.73
2018-04-20T22:03:44.232Z,10.20
2018-04-20T22:06:11.748Z,12.73
2018-04-20T22:08:39.278Z,6.43
2018-04-20T22:11:06.809Z,8.13
2018-04-20T22:13:35.095Z,10.17
2018-04-20T22:16:03.391Z,8.90
2018-04-20T22:18:30.952Z,11.33
2018-04-20T22:20:58.502Z,8.97
2018-04-20T22:23:26.082Z,12.43
2018-04-20T22:25:53.680Z,10.40
2018-04-20T22:28:22.174Z,10.40
2018-04-20T22:30:50.520Z,11.83
2018-04-20T22:33:18.196Z,11.17
2018-04-20T22:35:45.754Z,10.43
2018-04-20T22:38:13.391Z,11.87
2018-04-20T22:40:46.987Z,11.60
2018-04-20T22:43:15.482Z,13.70
2018-04-20T22:45:43.088Z,14.83
2018-04-20T22:48:11.400Z,11.30
2018-04-20T22:50:38.917Z,12.10
2018-04-20T22:53:07.260Z,10.03
2018-04-20T22:55:34.838Z,12.73
2018-04-20T22:58:02.479Z,14.90
2018-04-20T23:00:30.048Z,13.10
2018-04-20T23:02:57.563Z,15.73
2018-04-20T23:05:25.851Z,14.67
2018-04-20T23:07:53.401Z,13.57
2018-04-20T23:10:21.693Z,16.00
2018-04-20T23:12:49.204Z,14.70
2018-04-20T23:15:16.732Z,12.97
2018-04-20T23:17:44.255Z,12.07
2018-04-20T23:20:12.531Z,13.97
2018-04-20T23:22:40.821Z,11.33
2018-04-20T23:25:08.323Z,11.80
2018-04-20T23:27:35.827Z,15.70
2018-04-20T23:30:04.118Z,15.70
2018-04-20T23:32:32.396Z,17.00
2018-04-20T23:35:00.667Z,19.83
2018-04-20T23:37:28.972Z,17.73
2018-04-20T23:39:56.497Z,18.77
2018-04-20T23:42:24.035Z,11.03
2018-04-20T23:44:51.595Z,18.77
2018-04-20T23:47:19.128Z,12.70
2018-04-20T23:49:46.683Z,17.93
2018-04-20T23:52:14.963Z,20.90
2018-04-20T23:54:42.537Z,19.10
2018-04-20T23:57:10.065Z,17.93
2018-04-20T23:59:37.579Z,14.60
